• Join FlightAware (Why Join?)
  • Login
  • US Flag 
11:13AM EDT


 

Airport Tracker/Info


-or-


 

Live Flight TrackerFlight Track Log ✈ SWA864 ✈ 25-May-2013 ✈ KALB - KMDW

Flight Track Log - Related Links

Times and Time Zones

All times are in EDT time to prevent confusion due to time zone crossing. See the SWA864 flight status page for this flight to view local times or setup timezone preferences in your user account.

Time Position Orientation Groundspeed Altitude Reporting Facility
EDT Latitude Longitude Course Direction KTS MPH feet Rate Location/Type
07:38AM 42.7631 -73.8061 359° North 152 175 1,300  Level Boston Center
07:39AM 42.7839 -73.8064 359° North 156 180 2,400 2,520 Climbing Boston Center
07:40AM 42.8475 -73.9042 312° West 209 241 6,800 2,580 Climbing Boston Center
07:41AM 42.8922 -73.9761 310° West 228 262 9,300 2,460 Climbing Boston Center
07:42AM 42.9494 -74.0628 312° West 290 334 11,800 2,400 Climbing Boston Center
07:43AM 43.0086 -74.1578 310° West 320 368 14,200 2,580 Climbing Boston Center
07:44AM 43.0208 -74.2975 277° West 347 399 17,000 2,520 Climbing Boston Center
07:45AM 43.0311 -74.4311 276° West 371 427 19,300 2,580 Climbing Boston Center
07:46AM 43.0431 -74.5764 276° West 388 447 22,200 1,800 Climbing Boston Center
07:47AM 43.0547 -74.7303 276° West 394 453 23,000 1,200 Climbing Boston Center
07:48AM 43.0681 -74.8900 277° West 411 473 24,600 1,800 Climbing Boston Center
07:49AM 43.0706 -75.0550 271° West 426 490 26,700 1,980 Climbing Boston Center
07:50AM 43.0522 -75.2192 261° West 438 504 28,600 1,680 Climbing Boston Center
07:51AM 43.0189 -75.3850 255° West 443 510 30,100 1,560 Climbing Boston Center
07:52AM 42.9853 -75.5511 255° West 448 516 31,800 1,680 Climbing Boston Center
07:53AM 42.9514 -75.7194 255° West 453 521 33,500 1,560 Climbing Boston Center
07:54AM 42.9172 -75.8822 254° West 453 521 35,000 1,140 Climbing Boston Center
07:57AM 42.8306 -76.2878 254° West 441 507 37,600 780 Climbing Cleveland Center
07:58AM 42.7969 -76.4517 254° West 447 514 37,900 180 Climbing Cleveland Center
07:59AM 42.7608 -76.6125 253° West 447 514 38,000  Climbing Cleveland Center
08:00AM 42.7231 -76.7872 254° West 442 509 38,000  Level Cleveland Center
08:01AM 42.6886 -76.9503 254° West 442 509 38,000  Level Cleveland Center
08:02AM 42.6539 -77.1078 253° West 442 509 38,000  Level Cleveland Center
08:03AM 42.6189 -77.2678 253° West 442 509 38,000  Level Cleveland Center
08:04AM 42.5836 -77.4219 253° West 437 503 38,000  Level Cleveland Center
08:05AM 42.5522 -77.5672 254° West 437 503 38,000  Level Cleveland Center
08:06AM 42.5164 -77.7211 253° West 437 503 38,000  Level Cleveland Center
08:07AM 42.4806 -77.8775 253° West 437 503 38,000  Level Cleveland Center
08:08AM 42.4467 -78.0339 254° West 437 503 38,000  Level Cleveland Center
08:09AM 42.4103 -78.1900 253° West 437 503 38,000  Level Cleveland Center
08:10AM 42.3739 -78.3458 253° West 437 503 38,000  Level Cleveland Center
08:11AM 42.3372 -78.5017 252° West 443 510 38,000  Level Cleveland Center
08:12AM 42.3025 -78.6572 253° West 443 510 38,000  Level Cleveland Center
08:13AM 42.2633 -78.8128 251° West 443 510 38,000  Level Cleveland Center
08:14AM 42.2278 -78.9625 252° West 443 510 38,000  Level Cleveland Center
08:15AM 42.1903 -79.1147 252° West 438 504 38,000  Level Cleveland Center
08:16AM 42.1525 -79.2669 252° West 432 497 38,000  Level Cleveland Center
08:17AM 42.1125 -79.4131 250° West 427 491 38,000  Level Cleveland Center
08:18AM 42.0764 -79.5592 252° West 427 491 38,000  Level Cleveland Center
08:19AM 42.0381 -79.7108 251° West 427 491 38,000  Level Cleveland Center
08:20AM 41.9994 -79.8594 251° West 427 491 38,000  Level Cleveland Center
08:21AM 41.9586 -80.0053 249° West 427 491 38,000  Level Cleveland Center
08:22AM 41.9133 -80.1647 249° West 427 491 38,000  Level Cleveland Center
08:23AM 41.8764 -80.3097 251° West 421 484 38,000  Level Cleveland Center
08:24AM 41.8369 -80.4522 250° West 416 479 38,000  Level Cleveland Center
08:25AM 41.7975 -80.5997 250° West 416 479 38,000  Level Cleveland Center
08:26AM 41.7597 -80.7389 250° West 410 472 38,000  Level Cleveland Center
08:27AM 41.7200 -80.8808 249° West 410 472 38,000  Level Cleveland Center
08:28AM 41.6797 -81.0253 250° West 410 472 38,000  Level Cleveland Center
08:29AM 41.6542 -81.1667 256° West 400 460 38,000  Level Cleveland Center
08:30AM 41.6492 -81.3139 267° West 393 452 38,000  Level Cleveland Center
08:31AM 41.6439 -81.4611 267° West 393 452 38,000  Level Cleveland Center
08:32AM 41.6386 -81.6056 267° West 393 452 38,000  Level Cleveland Center
08:33AM 41.6331 -81.7472 267° West 388 447 38,000  Level Cleveland Center
08:34AM 41.6253 -81.8886 266° West 388 447 38,000  Level Cleveland Center
08:35AM 41.6214 -82.0331 268° West 388 447 38,000  Level Cleveland Center
08:36AM 41.6156 -82.1606 267° West 388 447 38,000  Level Cleveland Center
08:37AM 41.6094 -82.2967 267° West 383 441 38,000  Level Cleveland Center
08:38AM 41.6031 -82.4381 267° West 383 441 38,000  Level Cleveland Center
08:39AM 41.5967 -82.5711 266° West 373 429 38,000  Level Cleveland Center
08:40AM 41.5900 -82.7097 266° West 368 423 38,000  Level Cleveland Center
08:41AM 41.5811 -82.8456 265° West 368 423 38,000  Level Cleveland Center
08:42AM 41.5761 -82.9842 267° West 368 423 38,000  Level Cleveland Center
08:43AM 41.5689 -83.1256 266° West 374 430 38,000  Level Cleveland Center
08:44AM 41.5597 -83.2611 265° West 374 430 38,000  Level Cleveland Center
08:45AM 41.5519 -83.4022 266° West 374 430 38,000  Level Cleveland Center
08:46AM 41.5444 -83.5436 266° West 379 436 38,000  Level Cleveland Center
08:47AM 41.5336 -83.8031 267° West 378 435 38,000 -300 Level Chicago Center
08:49AM 41.5242 -83.9414 265° West 376 433 37,300 -840 Descending Chicago Center
08:50AM 41.5161 -84.0786 266° West 371 427 36,400 -660 Descending Chicago Center
08:51AM 41.5081 -84.2206 266° West 382 440 36,000 -840 Descending Chicago Center
08:52AM 41.4986 -84.3606 265° West 380 437 34,800 -1,680 Descending Chicago Center
08:53AM 41.4897 -84.5017 265° West 383 441 32,600 -2,340 Descending Chicago Center
08:54AM 41.4806 -84.6453 265° West 387 445 30,100 -1,320 Descending Chicago Center
08:55AM 41.4861 -84.7953 273° West 406 467 30,000 -60 Descending Chicago Center
08:56AM 41.4908 -84.9461 272° West 408 470 30,000  Level Chicago Center
08:57AM 41.4969 -85.0975 273° West 408 470 30,000 -1,020 Level Chicago Center
08:58AM 41.5017 -85.2497 272° West 408 470 28,000 -2,460 Descending Chicago Center
08:59AM 41.5053 -85.4031 272° West 406 467 25,100 -1,980 Descending Chicago Center
09:00AM 41.5119 -85.5858 273° West 400 460 24,000 -1,020 Descending Chicago Center
09:01AM 41.5167 -85.7367 272° West 403 464 23,100 -1,680 Descending Chicago Center
09:02AM 41.5206 -85.8828 272° West 392 451 20,600 -2,460 Descending Chicago Center
09:03AM 41.5242 -86.0217 272° West 375 432 18,200 -2,400 Descending Chicago Center
09:04AM 41.5239 -86.1608 270° West 375 432 15,700 -2,640 Descending Chicago Center
09:05AM 41.5228 -86.2989 269° West 375 432 12,800 -2,340 Descending Chicago Center
09:06AM 41.5233 -86.4328 270° West 363 418 11,000 -1,320 Descending Chicago Center
09:07AM 41.5208 -86.5589 269° West 346 398 10,200 -540 Descending Chicago Center
09:08AM 41.5197 -86.6814 269° West 331 381 10,000 -120 Descending Chicago Center
09:09AM 41.5197 -86.8097 270° West 319 367 10,000 -240 Level Chicago Center
09:10AM 41.5183 -86.9061 269° West 266 306 9,600 -900 Descending Chicago Center
09:11AM 41.5183 -87.0006 270° West 256 295 8,200 -1,380 Descending Chicago Center
09:12AM 41.5164 -87.0947 268° West 254 292 6,800 -1,140 Descending Chicago Center
09:13AM 41.5250 -87.2050 276° West 251 289 6,000 -600 Descending Chicago Center
09:14AM 41.5333 -87.2978 277° West 254 292 5,700 -660 Descending Chicago Center
09:15AM 41.5408 -87.3922 276° West 256 295 4,700 -840 Descending Chicago Center
09:16AM 41.5483 -87.4914 276° West 266 306 4,000 -540 Descending Chicago Center
09:17AM 41.5578 -87.5889 277° West 267 307 3,700 -540 Descending Chicago Center
09:18AM 41.5908 -87.6756 297° West 267 307 3,000 -480 Descending Chicago Center
09:19AM 41.6225 -87.7592 297° West 261 300 2,800 -300 Descending Chicago Center
09:20AM 41.6825 -87.8158 325° Northwest 237 273 2,500 -360 Descending Chicago Center
09:21AM 41.7244 -87.8275 348° North 186 214 2,100 -540 Descending Chicago Center
09:22AM 41.7533 -87.7939 41° Northeast 158 182 1,400 -360 Descending Chicago Center
09:23AM 41.7794 -87.7611 43° Northeast 153 176 1,400  Level Chicago Center
09:25AM 41.7833 -87.7500 334° Northwest  Level FlightAware Approximate